createdAt,value
2022-09-11T00:01:11.643Z,10.52
2022-09-11T00:03:39.753Z,12.48
2022-09-11T00:06:10.588Z,12.10
2022-09-11T00:08:40.093Z,10.88
2022-09-11T00:11:10.998Z,13.85
2022-09-11T00:13:40.364Z,11.07
2022-09-11T00:16:21.178Z,10.32
2022-09-11T00:18:49.445Z,9.38
2022-09-11T00:21:18.676Z,10.43
2022-09-11T00:23:49.667Z,9.43
2022-09-11T00:26:17.915Z,10.05
2022-09-11T00:28:46.744Z,9.35
2022-09-11T00:31:18.524Z,8.80
2022-09-11T00:33:46.621Z,8.95
2022-09-11T00:36:16.081Z,8.57
2022-09-11T00:38:45.660Z,7.47
2022-09-11T00:41:15.811Z,9.25
2022-09-11T00:44:00.191Z,8.30
2022-09-11T00:46:36.174Z,9.88
2022-09-11T00:49:14.433Z,8.88
2022-09-11T00:51:43.191Z,8.50
2022-09-11T00:54:14.112Z,9.93
2022-09-11T00:56:43.113Z,9.43
2022-09-11T00:59:11.927Z,8.40
2022-09-11T01:01:41.907Z,8.40
2022-09-11T01:04:10.807Z,7.28
2022-09-11T01:06:38.632Z,6.55
2022-09-11T01:09:06.367Z,6.53
2022-09-11T01:11:44.181Z,7.22
2022-09-11T01:14:27.925Z,6.93
2022-09-11T01:17:08.831Z,10.80
2022-09-11T01:19:46.407Z,10.38
2022-09-11T01:22:31.178Z,10.40
2022-09-11T01:25:10.595Z,12.90
2022-09-11T01:27:51.510Z,10.82
2022-09-11T01:30:20.961Z,10.30
2022-09-11T01:33:13.758Z,10.50
2022-09-11T01:35:52.833Z,9.93
2022-09-11T01:38:29.042Z,10.80
2022-09-11T01:41:01.557Z,11.43
2022-09-11T01:43:36.812Z,11.13
2022-09-11T01:46:07.885Z,10.73
2022-09-11T01:48:40.183Z,11.05
2022-09-11T01:51:12.964Z,9.98
2022-09-11T01:53:49.758Z,10.60
2022-09-11T01:56:22.569Z,11.50
2022-09-11T01:58:57.394Z,10.48
2022-09-11T02:01:31.084Z,9.15
2022-09-11T02:04:07.493Z,10.77
2022-09-11T02:06:40.636Z,9.68
2022-09-11T02:09:12.054Z,9.52
2022-09-11T02:11:43.094Z,8.95
2022-09-11T02:14:20.320Z,9.90
2022-09-11T02:16:51.659Z,9.43
2022-09-11T02:19:21.304Z,10.27
2022-09-11T02:21:50.903Z,10.13
2022-09-11T02:24:20.783Z,9.40
2022-09-11T02:26:52.768Z,11.27
2022-09-11T02:29:22.327Z,11.48
2022-09-11T02:31:52.094Z,10.45
2022-09-11T02:34:26.792Z,9.05
2022-09-11T02:37:09.423Z,12.73
2022-09-11T02:39:53.645Z,8.90
2022-09-11T02:42:34.034Z,8.30
2022-09-11T02:45:10.191Z,7.85
2022-09-11T02:47:45.479Z,8.07
2022-09-11T02:50:23.333Z,7.88
2022-09-11T02:52:59.169Z,7.55
2022-09-11T02:55:35.842Z,7.95
2022-09-11T02:58:08.468Z,8.50
2022-09-11T03:00:38.096Z,7.38
2022-09-11T03:03:06.627Z,7.50
2022-09-11T03:05:34.536Z,8.93
2022-09-11T03:08:04.331Z,8.13
2022-09-11T03:10:32.150Z,8.85
2022-09-11T03:13:00.242Z,9.48
2022-09-11T03:15:28.333Z,9.68
2022-09-11T03:17:57.850Z,8.65
2022-09-11T03:20:26.093Z,8.15
2022-09-11T03:22:53.864Z,8.75
2022-09-11T03:25:23.608Z,9.55
2022-09-11T03:27:51.756Z,9.88
2022-09-11T03:30:19.653Z,8.45
2022-09-11T03:32:48.043Z,8.20
2022-09-11T03:35:17.137Z,9.57
2022-09-11T03:37:47.410Z,9.90
2022-09-11T03:40:15.299Z,10.40
2022-09-11T03:42:43.188Z,8.88
2022-09-11T03:45:11.939Z,11.82
2022-09-11T03:47:40.431Z,9.57
2022-09-11T03:50:09.166Z,9.32
2022-09-11T03:52:39.134Z,8.45
2022-09-11T03:55:08.268Z,8.38
2022-09-11T03:57:38.560Z,9.27
2022-09-11T04:00:07.628Z,8.00
2022-09-11T04:02:35.397Z,8.27
2022-09-11T04:05:03.591Z,8.20
2022-09-11T04:07:31.944Z,8.73
2022-09-11T04:10:01.212Z,7.78
2022-09-11T04:12:29.010Z,8.10
2022-09-11T04:14:57.034Z,8.65
2022-09-11T04:17:26.737Z,8.43
2022-09-11T04:19:54.488Z,12.05
2022-09-11T04:22:23.880Z,8.80
2022-09-11T04:24:52.024Z,7.40
2022-09-11T04:27:23.313Z,7.20
2022-09-11T04:29:51.760Z,7.95
2022-09-11T04:32:19.744Z,8.20
2022-09-11T04:34:47.495Z,7.75
2022-09-11T04:37:16.535Z,7.63
2022-09-11T04:39:44.376Z,8.88
2022-09-11T04:42:12.134Z,8.80
2022-09-11T04:44:42.035Z,8.05
2022-09-11T04:47:09.945Z,7.68
2022-09-11T04:49:37.737Z,9.38
2022-09-11T04:52:07.191Z,8.13
2022-09-11T04:54:36.820Z,8.13
2022-09-11T04:57:04.842Z,7.97
2022-09-11T04:59:32.629Z,7.55
2022-09-11T05:02:01.955Z,10.32
2022-09-11T05:04:29.811Z,8.23
2022-09-11T05:06:57.678Z,8.20
2022-09-11T05:09:27.531Z,12.02
2022-09-11T05:11:56.896Z,78.18
2022-09-11T05:14:25.403Z,43.03
2022-09-11T05:16:54.809Z,89.00
2022-09-11T05:19:25.202Z,59.22
2022-09-11T05:21:52.994Z,64.22
2022-09-11T05:24:20.751Z,64.65
2022-09-11T05:26:48.641Z,120.68
2022-09-11T05:29:17.134Z,61.35
2022-09-11T05:31:44.950Z,94.35
2022-09-11T05:34:12.871Z,86.07
2022-09-11T05:36:41.964Z,42.95
2022-09-11T05:39:10.483Z,62.28
2022-09-11T05:41:38.642Z,83.40
2022-09-11T05:44:06.523Z,58.25
2022-09-11T05:46:34.648Z,68.53
2022-09-11T05:49:02.534Z,68.47
2022-09-11T05:51:30.484Z,40.95
2022-09-11T05:53:59.644Z,46.03
2022-09-11T05:56:28.166Z,54.30
2022-09-11T05:58:55.917Z,49.78
2022-09-11T06:01:25.825Z,61.42
2022-09-11T06:03:54.218Z,115.68
2022-09-11T06:06:23.731Z,61.83
2022-09-11T06:08:52.806Z,37.90
2022-09-11T06:11:23.410Z,77.20
2022-09-11T06:13:51.529Z,69.95
2022-09-11T06:16:21.072Z,47.40
2022-09-11T06:18:50.100Z,62.30
2022-09-11T06:21:20.011Z,43.30
2022-09-11T06:23:48.788Z,64.18
2022-09-11T06:26:18.609Z,44.63
2022-09-11T06:28:48.105Z,90.00
2022-09-11T06:31:18.253Z,88.10
2022-09-11T06:33:47.289Z,40.80
2022-09-11T06:36:17.315Z,29.67
2022-09-11T06:38:45.695Z,58.45
2022-09-11T06:41:15.592Z,29.67
2022-09-11T06:43:44.682Z,41.28
2022-09-11T06:46:15.391Z,28.67
2022-09-11T06:48:44.505Z,30.33
2022-09-11T06:51:13.601Z,46.63
2022-09-11T06:53:42.388Z,24.33
2022-09-11T06:56:13.316Z,13.60
2022-09-11T06:58:41.411Z,29.92
2022-09-11T07:01:11.749Z,52.28
2022-09-11T07:03:43.851Z,35.17
2022-09-11T07:06:12.032Z,34.03
2022-09-11T07:08:40.062Z,40.10
2022-09-11T07:11:08.946Z,17.30
2022-09-11T07:13:38.432Z,32.15
2022-09-11T07:16:08.732Z,29.00
2022-09-11T07:18:36.995Z,43.55
2022-09-11T07:21:11.143Z,11.68
2022-09-11T07:23:39.745Z,39.55
2022-09-11T07:26:09.685Z,13.38
2022-09-11T07:28:38.038Z,24.73
2022-09-11T07:31:10.498Z,13.50
2022-09-11T07:33:39.283Z,9.85
2022-09-11T07:36:12.818Z,12.82
2022-09-11T07:38:41.795Z,12.55
2022-09-11T07:41:10.823Z,11.13
2022-09-11T07:43:39.682Z,10.93
2022-09-11T07:46:08.020Z,12.43
2022-09-11T07:48:35.875Z,11.82
2022-09-11T07:51:06.433Z,12.75
2022-09-11T07:53:37.311Z,16.25
2022-09-11T07:56:06.588Z,13.18
2022-09-11T07:58:35.883Z,16.95
2022-09-11T08:01:05.362Z,15.27
2022-09-11T08:03:34.336Z,14.60
2022-09-11T08:06:04.166Z,13.27
2022-09-11T08:08:32.770Z,14.25
2022-09-11T08:11:06.567Z,12.18
2022-09-11T08:13:34.472Z,12.68
2022-09-11T08:16:02.877Z,13.90
2022-09-11T08:18:31.636Z,14.52
2022-09-11T08:21:03.851Z,12.93
2022-09-11T08:23:32.954Z,14.10
2022-09-11T08:26:09.575Z,15.55
2022-09-11T08:28:38.721Z,13.68
2022-09-11T08:31:07.834Z,14.27
2022-09-11T08:33:35.790Z,13.63
2022-09-11T08:36:05.924Z,15.38
2022-09-11T08:38:34.240Z,13.90
2022-09-11T08:41:13.746Z,16.23
2022-09-11T08:43:50.310Z,13.40
2022-09-11T08:46:19.535Z,13.60
2022-09-11T08:48:53.530Z,14.30
2022-09-11T08:51:21.674Z,12.88
2022-09-11T08:53:51.402Z,13.80
2022-09-11T08:56:23.565Z,11.95
2022-09-11T08:59:16.400Z,10.13
2022-09-11T09:01:53.089Z,8.90
2022-09-11T09:04:45.451Z,7.45
2022-09-11T09:07:22.802Z,7.30
2022-09-11T09:10:00.590Z,6.18
2022-09-11T09:12:36.754Z,6.95
2022-09-11T09:15:17.631Z,5.82
2022-09-11T09:17:49.207Z,7.15
2022-09-11T09:20:22.725Z,6.67
2022-09-11T09:22:55.609Z,4.20
2022-09-11T09:25:25.803Z,5.07
2022-09-11T09:28:00.410Z,3.60
2022-09-11T09:30:31.787Z,3.70
2022-09-11T09:33:11.386Z,3.42
2022-09-11T09:35:42.994Z,5.22
2022-09-11T09:38:13.856Z,6.00
2022-09-11T09:40:49.148Z,4.00
2022-09-11T09:43:31.028Z,6.30
2022-09-11T09:46:17.402Z,4.03
2022-09-11T09:48:45.234Z,5.13
2022-09-11T09:51:14.907Z,4.97
2022-09-11T09:53:47.244Z,4.97
2022-09-11T09:56:18.983Z,4.90
2022-09-11T09:58:58.029Z,4.00
2022-09-11T10:01:46.586Z,3.88
2022-09-11T10:04:17.774Z,3.28
2022-09-11T10:06:47.377Z,3.88
2022-09-11T10:09:28.060Z,5.20
2022-09-11T10:12:02.812Z,2.58
2022-09-11T10:14:50.929Z,3.92
2022-09-11T10:17:24.786Z,3.97
2022-09-11T10:19:56.919Z,3.60
2022-09-11T10:22:30.211Z,3.95
2022-09-11T10:25:03.709Z,4.65
2022-09-11T10:27:36.163Z,3.80
2022-09-11T10:30:06.310Z,4.15
2022-09-11T10:32:37.656Z,4.07
2022-09-11T10:35:10.266Z,4.70
2022-09-11T10:37:39.032Z,3.63
2022-09-11T10:40:09.958Z,3.28
2022-09-11T10:42:38.570Z,3.75
2022-09-11T10:45:16.886Z,4.00
2022-09-11T10:47:45.827Z,2.88
2022-09-11T10:50:24.076Z,3.50
2022-09-11T10:53:06.667Z,6.07
2022-09-11T10:55:40.393Z,2.72
2022-09-11T10:58:14.000Z,3.00
2022-09-11T11:00:43.290Z,3.67
2022-09-11T11:03:17.053Z,4.78
2022-09-11T11:05:54.451Z,5.80
2022-09-11T11:08:39.412Z,4.53
2022-09-11T11:11:22.230Z,2.83
2022-09-11T11:14:21.168Z,5.70
2022-09-11T11:17:00.606Z,3.47
2022-09-11T11:19:46.992Z,6.43
2022-09-11T11:22:27.624Z,3.63
2022-09-11T11:25:09.392Z,4.65
2022-09-11T11:28:00.356Z,2.40
2022-09-11T11:30:32.599Z,4.47
2022-09-11T11:33:28.830Z,2.95
2022-09-11T11:36:04.527Z,2.60
2022-09-11T11:38:40.453Z,2.30
2022-09-11T11:41:13.592Z,2.88
2022-09-11T11:43:44.710Z,3.58
2022-09-11T11:46:18.277Z,2.53
2022-09-11T11:48:53.763Z,2.97
2022-09-11T11:51:27.141Z,2.95
2022-09-11T11:54:02.807Z,3.58
2022-09-11T11:56:38.689Z,2.95
2022-09-11T11:59:16.108Z,3.70
2022-09-11T12:01:47.973Z,1.65
2022-09-11T12:04:40.398Z,2.72
2022-09-11T12:07:17.788Z,2.40
2022-09-11T12:09:50.246Z,1.90
2022-09-11T12:12:19.468Z,3.33
2022-09-11T12:14:52.113Z,3.08
2022-09-11T12:17:24.763Z,1.88
2022-09-11T12:20:29.134Z,2.40
2022-09-11T12:22:58.219Z,1.98
2022-09-11T12:26:06.089Z,2.13
2022-09-11T12:28:34.617Z,1.80
2022-09-11T12:31:06.164Z,2.58
2022-09-11T12:33:55.318Z,2.05
2022-09-11T12:36:36.302Z,3.35
2022-09-11T12:39:16.715Z,2.72
2022-09-11T12:41:47.643Z,3.55
2022-09-11T12:44:33.830Z,2.45
2022-09-11T12:47:13.446Z,2.15
2022-09-11T12:49:43.595Z,2.55
2022-09-11T12:52:31.716Z,2.17
2022-09-11T12:55:03.843Z,3.25
2022-09-11T12:57:35.217Z,1.85
2022-09-11T13:00:21.304Z,2.63
2022-09-11T13:02:55.238Z,1.85
2022-09-11T13:05:27.838Z,2.53
2022-09-11T13:07:59.529Z,1.83
2022-09-11T13:10:35.127Z,2.80
2022-09-11T13:13:05.405Z,2.42
2022-09-11T13:15:52.421Z,1.95
2022-09-11T13:18:31.948Z,2.10
2022-09-11T13:21:01.844Z,2.17
2022-09-11T13:23:31.538Z,3.05
2022-09-11T13:25:59.471Z,2.92
2022-09-11T13:28:31.762Z,3.63
2022-09-11T13:31:03.267Z,3.42
2022-09-11T13:33:32.811Z,3.42
2022-09-11T13:36:03.482Z,2.58
2022-09-11T13:38:35.061Z,2.92
2022-09-11T13:41:07.139Z,3.40
2022-09-11T13:43:39.646Z,3.28
2022-09-11T13:46:22.146Z,2.67
2022-09-11T13:48:52.159Z,2.78
2022-09-11T13:51:24.089Z,2.50
2022-09-11T13:53:59.332Z,3.28
2022-09-11T13:56:47.045Z,2.92
2022-09-11T13:59:36.349Z,3.10
2022-09-11T14:02:08.515Z,3.50
2022-09-11T14:04:42.472Z,2.45
2022-09-11T14:07:22.097Z,2.47
2022-09-11T14:10:00.568Z,2.30
2022-09-11T14:12:29.644Z,2.80
2022-09-11T14:15:02.698Z,2.13
2022-09-11T14:17:30.715Z,2.55
2022-09-11T14:20:02.532Z,3.63
2022-09-11T14:22:32.217Z,3.40
2022-09-11T14:25:24.900Z,2.97
2022-09-11T14:27:53.121Z,3.13
2022-09-11T14:30:37.170Z,2.53
2022-09-11T14:33:22.889Z,3.38
2022-09-11T14:35:51.493Z,2.20
2022-09-11T14:38:23.074Z,3.55
2022-09-11T14:40:59.236Z,2.30
2022-09-11T14:43:34.418Z,3.80
2022-09-11T14:46:03.846Z,3.60
2022-09-11T14:48:34.348Z,2.15
2022-09-11T14:51:09.912Z,2.42
2022-09-11T14:53:43.413Z,3.30
2022-09-11T14:56:12.925Z,2.78
2022-09-11T14:58:40.763Z,1.85
2022-09-11T15:01:09.936Z,1.48
2022-09-11T15:03:39.303Z,1.77
2022-09-11T15:06:15.484Z,2.75
2022-09-11T15:08:44.864Z,1.73
2022-09-11T15:11:15.821Z,2.05
2022-09-11T15:14:10.861Z,2.25
2022-09-11T15:16:32.429Z,1.15
2022-09-11T15:19:00.259Z,1.40
2022-09-11T15:21:28.488Z,2.10
2022-09-11T15:23:56.444Z,3.97
2022-09-11T15:26:27.350Z,3.58
2022-09-11T15:28:55.265Z,9.07
2022-09-11T15:31:23.867Z,2.53
2022-09-11T15:33:52.310Z,1.52
2022-09-11T15:36:21.441Z,1.50
2022-09-11T15:38:53.168Z,2.13
2022-09-11T15:41:21.864Z,1.90
2022-09-11T15:43:51.411Z,1.98
2022-09-11T15:46:21.042Z,1.42
2022-09-11T15:48:49.854Z,2.67
2022-09-11T15:51:20.383Z,1.88
2022-09-11T15:53:48.707Z,1.65
2022-09-11T15:56:21.567Z,1.63
2022-09-11T15:58:53.319Z,1.40
2022-09-11T16:01:23.037Z,1.45
2022-09-11T16:03:51.889Z,27.80
2022-09-11T16:06:20.986Z,23.00
2022-09-11T16:08:49.402Z,11.25
2022-09-11T16:11:17.484Z,2.97
2022-09-11T16:13:49.212Z,1.52
2022-09-11T16:16:19.108Z,1.45
2022-09-11T16:18:47.578Z,3.95
2022-09-11T16:21:16.635Z,2.22
2022-09-11T16:23:49.834Z,2.80
2022-09-11T16:26:23.829Z,2.10
2022-09-11T16:28:53.113Z,2.58
2022-09-11T16:31:22.583Z,2.22
2022-09-11T16:33:50.643Z,2.40
2022-09-11T16:36:20.784Z,2.33
2022-09-11T16:38:49.906Z,2.88
2022-09-11T16:41:20.178Z,2.42
2022-09-11T16:43:49.886Z,3.20
2022-09-11T16:46:19.955Z,2.03
2022-09-11T16:48:54.114Z,3.25
2022-09-11T16:51:23.355Z,3.97
2022-09-11T16:53:52.692Z,1.83
2022-09-11T16:56:22.970Z,1.98
2022-09-11T16:58:51.261Z,1.27
2022-09-11T17:01:21.514Z,1.83
2022-09-11T17:03:52.543Z,1.52
2022-09-11T17:06:22.155Z,2.10
2022-09-11T17:08:51.464Z,3.15
2022-09-11T17:11:21.509Z,1.95
2022-09-11T17:13:50.455Z,2.33
2022-09-11T17:16:20.762Z,1.52
2022-09-11T17:18:51.096Z,1.52
2022-09-11T17:21:18.981Z,3.10
2022-09-11T17:23:46.987Z,1.80
2022-09-11T17:26:16.782Z,2.72
2022-09-11T17:28:46.279Z,2.30
2022-09-11T17:31:15.658Z,1.95
2022-09-11T17:33:45.460Z,2.25
2022-09-11T17:36:17.186Z,2.15
2022-09-11T17:38:45.564Z,2.42
2022-09-11T17:41:13.452Z,2.33
2022-09-11T17:43:41.610Z,2.60
2022-09-11T17:46:11.549Z,10.63
2022-09-11T17:48:40.342Z,4.53
2022-09-11T17:51:10.975Z,3.83
2022-09-11T17:53:41.943Z,4.22
2022-09-11T17:56:12.148Z,2.40
2022-09-11T17:58:40.239Z,3.63
2022-09-11T18:01:08.246Z,2.40
2022-09-11T18:03:36.914Z,5.35
2022-09-11T18:06:16.947Z,5.13
2022-09-11T18:08:46.513Z,4.82
2022-09-11T18:11:14.887Z,3.47
2022-09-11T18:13:43.903Z,3.33
2022-09-11T18:16:12.484Z,2.50
2022-09-11T18:18:40.650Z,2.88
2022-09-11T18:21:10.007Z,5.00
2022-09-11T18:23:39.740Z,3.30
2022-09-11T18:26:10.216Z,4.35
2022-09-11T18:28:39.868Z,2.60
2022-09-11T18:31:09.193Z,4.07
2022-09-11T18:33:37.614Z,3.10
2022-09-11T18:36:08.458Z,2.75
2022-09-11T18:38:37.337Z,4.55
2022-09-11T18:41:05.250Z,3.00
2022-09-11T18:43:34.500Z,2.72
2022-09-11T18:46:03.587Z,3.42
2022-09-11T18:48:31.435Z,2.75
2022-09-11T18:51:00.150Z,3.15
2022-09-11T18:53:28.502Z,3.22
2022-09-11T18:56:00.599Z,3.50
2022-09-11T18:58:31.029Z,3.60
2022-09-11T19:01:01.674Z,3.92
2022-09-11T19:03:30.266Z,3.60
2022-09-11T19:06:02.925Z,3.33
2022-09-11T19:08:32.203Z,4.38
2022-09-11T19:11:00.568Z,5.35
2022-09-11T19:13:28.489Z,4.75
2022-09-11T19:15:57.080Z,4.13
2022-09-11T19:18:26.506Z,5.50
2022-09-11T19:21:00.226Z,4.18
2022-09-11T19:23:31.292Z,3.50
2022-09-11T19:26:02.929Z,3.78
2022-09-11T19:28:31.459Z,5.90
2022-09-11T19:31:00.820Z,3.95
2022-09-11T19:33:32.996Z,3.65
2022-09-11T19:36:04.335Z,4.35
2022-09-11T19:38:34.189Z,4.57
2022-09-11T19:41:01.984Z,4.78
2022-09-11T19:43:31.039Z,4.95
2022-09-11T19:46:02.729Z,4.40
2022-09-11T19:48:32.529Z,4.50
2022-09-11T19:51:01.494Z,3.88
2022-09-11T19:53:30.152Z,3.80
2022-09-11T19:56:00.255Z,4.22
2022-09-11T19:58:30.204Z,5.05
2022-09-11T20:00:58.223Z,3.30
2022-09-11T20:03:26.463Z,3.58
2022-09-11T20:05:55.713Z,3.08
2022-09-11T20:08:23.686Z,3.78
2022-09-11T20:10:51.905Z,4.85
2022-09-11T20:13:19.745Z,3.95
2022-09-11T20:15:47.564Z,4.20
2022-09-11T20:18:15.739Z,3.78
2022-09-11T20:20:45.561Z,4.47
2022-09-11T20:23:14.864Z,3.80
2022-09-11T20:25:42.677Z,8.48
2022-09-11T20:28:10.871Z,6.13
2022-09-11T20:30:39.852Z,4.35
2022-09-11T20:33:07.811Z,4.47
2022-09-11T20:35:35.968Z,4.75
2022-09-11T20:38:03.788Z,3.72
2022-09-11T20:40:32.895Z,3.47
2022-09-11T20:43:00.706Z,5.38
2022-09-11T20:45:28.500Z,4.68
2022-09-11T20:47:56.252Z,3.88
2022-09-11T20:50:24.063Z,4.07
2022-09-11T20:52:51.862Z,3.58
2022-09-11T20:55:19.623Z,3.92
2022-09-11T20:57:48.755Z,5.07
2022-09-11T21:00:16.995Z,4.38
2022-09-11T21:02:44.769Z,4.30
2022-09-11T21:05:12.574Z,4.38
2022-09-11T21:07:40.450Z,4.68
2022-09-11T21:10:09.087Z,4.63
2022-09-11T21:12:36.888Z,4.28
2022-09-11T21:15:08.098Z,3.47
2022-09-11T21:17:35.880Z,3.33
2022-09-11T21:20:04.423Z,3.60
2022-09-11T21:22:32.296Z,2.95
2022-09-11T21:25:00.080Z,2.80
2022-09-11T21:27:27.896Z,1.90
2022-09-11T21:29:56.208Z,1.80
2022-09-11T21:32:25.468Z,1.88
2022-09-11T21:34:53.178Z,1.75
2022-09-11T21:37:21.260Z,1.38
2022-09-11T21:39:49.078Z,2.03
2022-09-11T21:42:16.892Z,2.60
2022-09-11T21:44:44.735Z,2.35
2022-09-11T21:47:12.524Z,2.90
2022-09-11T21:49:41.720Z,3.00
2022-09-11T21:52:10.215Z,4.18
2022-09-11T21:54:38.992Z,2.33
2022-09-11T21:57:06.843Z,3.05
2022-09-11T21:59:34.572Z,3.00
2022-09-11T22:02:02.458Z,2.42
2022-09-11T22:04:30.693Z,2.45
2022-09-11T22:07:00.298Z,2.22
2022-09-11T22:09:30.651Z,2.75
2022-09-11T22:12:00.016Z,2.33
2022-09-11T22:14:28.612Z,1.90
2022-09-11T22:16:56.398Z,1.77
2022-09-11T22:19:24.177Z,2.10
2022-09-11T22:21:52.290Z,2.55
2022-09-11T22:24:21.421Z,2.60
2022-09-11T22:26:49.575Z,3.10
2022-09-11T22:29:17.312Z,2.95
2022-09-11T22:31:45.203Z,3.58
2022-09-11T22:34:14.299Z,3.92
2022-09-11T22:36:42.165Z,2.20
2022-09-11T22:39:10.449Z,2.08
2022-09-11T22:41:40.890Z,2.10
2022-09-11T22:44:10.950Z,2.15
2022-09-11T22:46:38.931Z,1.52
2022-09-11T22:49:06.691Z,1.67
2022-09-11T22:51:35.414Z,1.95
2022-09-11T22:54:04.476Z,1.40
2022-09-11T22:56:32.455Z,1.73
2022-09-11T22:59:01.637Z,1.83
2022-09-11T23:01:29.461Z,1.85
2022-09-11T23:03:59.214Z,1.55
2022-09-11T23:06:44.811Z,1.67
2022-09-11T23:09:16.708Z,3.22
2022-09-11T23:11:45.959Z,2.15
2022-09-11T23:14:15.224Z,2.17
2022-09-11T23:16:43.666Z,2.28
2022-09-11T23:19:14.953Z,1.85
2022-09-11T23:21:43.394Z,2.53
2022-09-11T23:24:14.477Z,2.67
2022-09-11T23:26:43.382Z,1.85
2022-09-11T23:29:11.797Z,1.80
2022-09-11T23:31:41.742Z,2.22
2022-09-11T23:34:10.011Z,2.75
2022-09-11T23:36:37.834Z,2.33
2022-09-11T23:39:05.963Z,2.33
2022-09-11T23:41:34.028Z,2.65
2022-09-11T23:44:03.512Z,4.65
2022-09-11T23:46:31.888Z,2.00
2022-09-11T23:49:01.343Z,2.03
2022-09-11T23:51:29.102Z,1.90
2022-09-11T23:53:56.854Z,1.98
2022-09-11T23:56:24.690Z,2.67
2022-09-11T23:58:52.510Z,1.83
